Aviation Digital Data Service (ADDS)

Output produced by METARs form (1159 UTC 26 March 2019)
found at http://www.aviationweather.gov/metar/data/
 
VLLB 261100Z 24002KT 4000 FU SCT018 FEW060 34/23 Q1009 NOSIG
TAF VLLB 261100Z 2612/2712 34004KT 9999 SCT020 FEW060 
     TEMPO 2616/2622 3000 BR SCT017 SCT050
       
VLPS 261100Z 14002KT 5000 HZ SCT027 SCT050 35/21 Q1010 NOSIG
TAF VLPS 261100Z 2612/2712 14006KT 5000 HZ SCT027 SCT050 
     TEMPO 2616/2622 3000 BR SCT027 SCT050
       
VLSK 260900Z 36004KT 9999 SCT020 SCT100 36/14 Q1011 NOSIG
TAF VLSK 261100Z 2612/2712 09004KT 7000 SCT020 SCT100 
     TEMPO 2614/2620 3000 BR SCT040 SCT100
       
VLVT 261130Z 18002KT 5000 BR BKN040 BKN083 29/23 Q1010 NOSIG
TAF VLVT 261100Z 2612/2712 09004KT 6000 SCT020 SCT040 
     TEMPO 2614/2620 3000 BR FEW016 BKN040